Time;durP1;ratioP1;P1;durP2;ratioP2;P2;SDS_P1;SDS_P2;PMS_P1;PMS_P2;Temp;Humidity;BMP_temperature;BMP_pressure;BME280_temperature;BME280_humidity;BME280_pressure;Samples;Min_cycle;Max_cycle;Signal;HPM_P1;HPM_P2
2021/03/05 00:00:20;;;;;;;3.50;1.38;;;-2.10;74.10;;;;;;5056005;28;20551;-74
2021/03/05 00:02:46;;;;;;;3.33;1.67;;;-2.10;74.40;;;;;;5073995;28;20107;-74
2021/03/05 00:05:12;;;;;;;1.20;0.95;;;-2.10;74.50;;;;;;5055257;28;20439;-76
2021/03/05 00:07:41;;;;;;;2.10;1.35;;;-2.10;75.10;;;;;;5073838;28;20021;-73
2021/03/05 00:10:09;;;;;;;3.28;1.70;;;-2.20;75.10;;;;;;5074063;28;20021;-74
2021/03/05 00:12:35;;;;;;;1.77;1.30;;;-2.20;75.20;;;;;;5073837;28;20020;-74
2021/03/05 00:15:01;;;;;;;1.85;1.67;;;-2.20;75.30;;;;;;5073964;28;20036;-74
2021/03/05 00:17:27;;;;;;;2.20;1.15;;;-2.20;75.50;;;;;;5055810;28;20021;-74
2021/03/05 00:19:56;;;;;;;4.40;1.60;;;-2.30;75.70;;;;;;5073779;28;20075;-74
2021/03/05 00:22:29;;;;;;;2.45;1.80;;;-2.30;75.90;;;;;;5055697;28;20063;-74
2021/03/05 00:24:58;;;;;;;5.00;1.40;;;-2.30;76.20;;;;;;5073661;28;20044;-74
2021/03/05 00:27:24;;;;;;;1.40;1.30;;;-2.30;76.50;;;;;;5073562;28;20055;-74
2021/03/05 00:29:49;;;;;;;1.55;1.23;;;-2.30;76.50;;;;;;5055674;28;20052;-74
2021/03/05 00:32:15;;;;;;;1.67;1.40;;;-2.30;76.60;;;;;;5073786;28;20017;-74
2021/03/05 00:34:44;;;;;;;2.20;1.35;;;-2.30;76.60;;;;;;5073487;28;20027;-74
2021/03/05 00:37:10;;;;;;;2.75;1.40;;;-2.30;77.00;;;;;;5059834;28;20059;-74
2021/03/05 00:39:42;;;;;;;3.15;1.70;;;-2.30;77.10;;;;;;5073583;28;20052;-74
2021/03/05 00:42:08;;;;;;;2.95;1.40;;;-2.40;77.10;;;;;;5074617;28;20078;-75
2021/03/05 00:44:34;;;;;;;2.10;1.50;;;-2.40;77.30;;;;;;5065273;28;20388;-74
2021/03/05 00:47:00;;;;;;;2.70;1.92;;;-2.30;77.70;;;;;;5062383;28;20017;-76
2021/03/05 00:49:26;;;;;;;3.58;2.00;;;-2.40;77.80;;;;;;5073625;28;20389;-76
2021/03/05 00:51:52;;;;;;;2.88;1.90;;;-2.40;78.00;;;;;;5073145;28;20025;-75
2021/03/05 00:54:18;;;;;;;2.88;1.95;;;-2.40;78.10;;;;;;5073194;28;20062;-75
2021/03/05 00:56:44;;;;;;;3.65;1.73;;;-2.40;78.40;;;;;;5038921;28;991235;-75
2021/03/05 00:59:13;;;;;;;3.03;1.83;;;-2.40;78.50;;;;;;5073856;28;20047;-74
2021/03/05 01:01:42;;;;;;;3.55;1.90;;;-2.50;78.80;;;;;;5059843;28;20013;-73
2021/03/05 01:04:08;;;;;;;2.15;1.70;;;-2.50;79.20;;;;;;5065871;28;20075;-75
2021/03/05 01:06:34;;;;;;;1.98;1.45;;;-2.50;79.30;;;;;;5069298;28;20416;-75
2021/03/05 01:09:00;;;;;;;2.33;1.45;;;-2.50;79.70;;;;;;5073768;28;20032;-74
2021/03/05 01:11:26;;;;;;;3.42;2.03;;;-2.50;79.80;;;;;;5071271;28;20469;-74
2021/03/05 01:13:52;;;;;;;2.00;1.80;;;-2.50;80.00;;;;;;5073648;28;20120;-75
2021/03/05 01:16:18;;;;;;;4.22;2.40;;;-2.50;80.10;;;;;;5067196;28;20082;-74
2021/03/05 01:18:43;;;;;;;2.38;1.60;;;-2.50;80.20;;;;;;5054983;28;20013;-75
2021/03/05 01:21:09;;;;;;;3.88;2.40;;;-2.50;80.50;;;;;;5073867;28;20044;-74
2021/03/05 01:23:35;;;;;;;3.38;2.08;;;-2.40;80.60;;;;;;5058946;28;20019;-74
2021/03/05 01:26:01;;;;;;;5.88;2.75;;;-2.40;80.70;;;;;;5066919;28;20028;-73
2021/03/05 01:28:27;;;;;;;3.78;2.53;;;-2.30;80.70;;;;;;5064912;28;20043;-73
2021/03/05 01:30:53;;;;;;;2.95;2.20;;;-2.30;80.50;;;;;;5054367;28;20090;-74
2021/03/05 01:33:19;;;;;;;5.35;3.55;;;-2.20;80.30;;;;;;5065895;28;20021;-74
2021/03/05 01:35:45;;;;;;;5.00;2.13;;;-2.20;80.50;;;;;;5069568;28;20013;-74
2021/03/05 01:38:11;;;;;;;2.97;1.77;;;-2.20;80.60;;;;;;5073729;28;20024;-73
2021/03/05 01:40:44;;;;;;;4.68;2.47;;;-2.20;80.50;;;;;;5064170;28;20052;-74
2021/03/05 01:43:12;;;;;;;5.05;2.10;;;-2.20;80.80;;;;;;5073649;28;20024;-74
2021/03/05 01:45:38;;;;;;;2.85;2.10;;;-2.10;80.80;;;;;;5065814;28;20029;-74
2021/03/05 01:49:00;;;;;;;4.07;2.40;;;-2.10;80.80;;;;;;5066071;28;20020;-74
2021/03/05 01:51:29;;;;;;;6.43;2.72;;;-2.10;80.80;;;;;;5056264;28;20025;-73
2021/03/05 01:53:59;;;;;;;3.88;2.30;;;-2.10;80.80;;;;;;5068751;28;20385;-74
2021/03/05 01:56:45;;;;;;;2.65;1.85;;;-2.00;80.80;;;;;;5072261;28;20040;-74
2021/03/05 01:59:14;;;;;;;3.47;2.10;;;-2.00;80.60;;;;;;5057217;28;20094;-74
2021/03/05 02:01:41;;;;;;;3.22;2.08;;;-1.90;80.40;;;;;;5053096;28;20024;-74
2021/03/05 02:04:12;;;;;;;5.43;2.28;;;-1.90;80.10;;;;;;5054668;28;20367;-74
2021/03/05 02:06:39;;;;;;;4.57;2.70;;;-1.80;79.80;;;;;;5055587;28;20032;-74
2021/03/05 02:09:07;;;;;;;2.65;2.05;;;-1.80;79.40;;;;;;5071438;28;20013;-73
2021/03/05 02:11:33;;;;;;;2.83;2.05;;;-1.90;79.40;;;;;;5055292;28;20052;-73
2021/03/05 02:14:05;;;;;;;5.03;2.25;;;-1.80;79.40;;;;;;5071294;28;20017;-74
2021/03/05 02:16:42;;;;;;;4.95;2.30;;;-1.80;79.30;;;;;;5061074;28;20022;-73
2021/03/05 02:19:26;;;;;;;4.25;2.60;;;-1.80;79.30;;;;;;5072442;28;20032;-74
2021/03/05 02:22:12;;;;;;;10.15;2.80;;;-1.80;79.40;;;;;;5058528;28;20493;-74
2021/03/05 02:24:56;;;;;;;3.30;2.20;;;-1.80;80.00;;;;;;5047645;28;20096;-73
2021/03/05 02:27:45;;;;;;;4.28;2.05;;;-1.90;79.40;;;;;;5061016;28;20067;-74
2021/03/05 02:30:57;;;;;;;4.82;2.90;;;-2.00;79.40;;;;;;5070809;28;20500;-74
2021/03/05 02:33:45;;;;;;;3.72;2.40;;;-2.20;79.40;;;;;;5065954;28;20026;-75
2021/03/05 02:36:17;;;;;;;4.47;2.15;;;-2.30;79.70;;;;;;5051117;28;20404;-74
2021/03/05 02:38:55;;;;;;;5.47;2.72;;;-2.40;80.10;;;;;;5060016;28;20499;-75
2021/03/05 02:41:22;;;;;;;4.32;2.67;;;-2.50;80.30;;;;;;5069700;28;20134;-74
2021/03/05 02:43:48;;;;;;;2.97;2.47;;;-2.60;80.50;;;;;;5069153;28;20016;-74
2021/03/05 02:46:14;;;;;;;4.20;2.50;;;-2.70;80.70;;;;;;5069470;28;20025;-74
2021/03/05 02:48:44;;;;;;;3.65;2.95;;;-2.70;80.80;;;;;;5067237;28;20128;-76
2021/03/05 02:51:13;;;;;;;4.90;3.33;;;-2.70;81.10;;;;;;5071264;28;20016;-75
2021/03/05 02:53:41;;;;;;;9.63;3.83;;;-2.80;81.20;;;;;;5063088;28;20013;-74
2021/03/05 02:56:15;;;;;;;6.82;3.28;;;-2.80;81.20;;;;;;5064248;28;20036;-75
2021/03/05 02:58:48;;;;;;;5.45;3.13;;;-2.90;81.30;;;;;;5052417;28;20021;-74
2021/03/05 03:01:15;;;;;;;7.35;3.88;;;-2.90;81.60;;;;;;5052406;28;20025;-76
2021/03/05 03:03:42;;;;;;;5.93;3.25;;;-2.90;81.70;;;;;;5051989;28;20017;-75
2021/03/05 03:06:10;;;;;;;4.47;2.58;;;-2.90;81.90;;;;;;5052376;28;20032;-75
2021/03/05 03:08:36;;;;;;;;;;;-2.80;81.90;;;;;;5052318;28;20028;-74
2021/03/05 03:11:04;;;;;;;5.97;3.00;;;-2.80;81.60;;;;;;5052061;28;19909;-75
2021/03/05 03:13:33;;;;;;;5.70;3.00;;;-2.70;81.60;;;;;;5052189;28;20474;-75
2021/03/05 03:16:00;;;;;;;5.50;3.30;;;-2.70;81.60;;;;;;5052061;28;20386;-74
2021/03/05 03:18:27;;;;;;;5.90;3.47;;;-2.60;81.40;;;;;;5052138;28;20025;-75
2021/03/05 03:20:57;;;;;;;4.68;3.25;;;-2.60;81.20;;;;;;5052072;28;20314;-74
2021/03/05 03:23:23;;;;;;;5.28;2.92;;;-2.60;81.10;;;;;;5052069;28;20017;-75
2021/03/05 03:25:50;;;;;;;4.82;3.25;;;-2.60;81.10;;;;;;5052501;28;20035;-74
2021/03/05 03:28:16;;;;;;;;;;;-2.70;81.20;;;;;;5055041;28;20013;-75
2021/03/05 03:30:42;;;;;;;4.97;3.22;;;-2.70;81.10;;;;;;5056299;28;19958;-75
2021/03/05 03:33:08;;;;;;;6.30;3.38;;;-2.80;81.20;;;;;;5056027;28;20025;-75
2021/03/05 03:35:35;;;;;;;3.63;2.72;;;-2.70;81.40;;;;;;5056036;28;20032;-75
2021/03/05 03:38:02;;;;;;;4.00;2.70;;;-2.70;81.40;;;;;;5043005;28;20060;-74
2021/03/05 03:40:28;;;;;;;4.03;2.33;;;-2.70;81.20;;;;;;5055936;28;20421;-76
2021/03/05 03:42:54;;;;;;;4.70;3.30;;;-2.80;80.80;;;;;;5056058;28;20025;-75
2021/03/05 03:45:23;;;;;;;3.83;2.42;;;-2.80;80.70;;;;;;5055781;28;20036;-75
2021/03/05 03:47:55;;;;;;;2.67;2.28;;;-2.80;80.60;;;;;;5056047;28;20110;-74
2021/03/05 03:50:23;;;;;;;6.03;3.03;;;-2.90;80.70;;;;;;5055944;28;20066;-75
2021/03/05 03:53:00;;;;;;;4.85;2.80;;;-2.90;80.80;;;;;;5055771;28;20155;-74
2021/03/05 03:55:26;;;;;;;5.30;2.83;;;-2.90;80.90;;;;;;5055361;28;20052;-74
2021/03/05 03:57:54;;;;;;;3.80;2.92;;;-2.90;80.90;;;;;;5073715;28;20083;-75
2021/03/05 04:00:21;;;;;;;4.75;2.63;;;-2.90;81.00;;;;;;5057393;28;20044;-74
2021/03/05 04:02:51;;;;;;;4.70;2.78;;;-2.90;81.00;;;;;;5058080;28;20370;-74
2021/03/05 04:05:20;;;;;;;6.30;3.42;;;-2.90;81.10;;;;;;5075313;28;20103;-74
2021/03/05 04:07:48;;;;;;;4.13;3.03;;;-2.80;81.10;;;;;;5076053;28;20028;-74
2021/03/05 04:10:16;;;;;;;6.10;3.22;;;-2.80;81.10;;;;;;5076115;28;20408;-74
2021/03/05 04:12:43;;;;;;;5.10;2.97;;;-2.80;81.10;;;;;;5075928;28;20078;-73
2021/03/05 04:15:11;;;;;;;4.47;2.78;;;-2.80;81.10;;;;;;5075987;28;20029;-74
2021/03/05 04:17:36;;;;;;;;;;;-2.80;80.90;;;;;;5064236;28;20048;-75
2021/03/05 04:20:05;;;;;;;6.13;3.53;;;-2.80;80.80;;;;;;5082408;28;19912;-74
2021/03/05 04:22:33;;;;;;;6.13;2.70;;;-2.80;81.00;;;;;;5057645;28;20071;-75
2021/03/05 04:24:59;;;;;;;;;;;-2.90;81.20;;;;;;5075871;28;20074;-73
2021/03/05 04:27:25;;;;;;;7.53;3.20;;;-2.90;81.20;;;;;;5075422;28;20391;-74
2021/03/05 04:29:51;;;;;;;4.47;3.17;;;-2.90;81.40;;;;;;5075196;28;20069;-72
2021/03/05 04:32:16;;;;;;;5.32;3.72;;;-3.00;81.70;;;;;;5075318;28;20119;-73
2021/03/05 04:34:42;;;;;;;3.72;2.90;;;-2.90;81.90;;;;;;5073312;28;20062;-74
2021/03/05 04:37:08;;;;;;;4.28;2.75;;;-2.90;81.90;;;;;;5074854;28;20032;-73
2021/03/05 04:39:34;;;;;;;8.30;5.07;;;-2.90;81.90;;;;;;5074323;28;20033;-74
2021/03/05 04:42:01;;;;;;;5.85;3.05;;;-2.90;81.90;;;;;;5075044;28;20032;-76
2021/03/05 04:44:27;;;;;;;3.05;2.08;;;-2.90;82.00;;;;;;5073503;28;20021;-74
2021/03/05 04:46:53;;;;;;;7.38;4.30;;;-2.80;81.90;;;;;;5073171;28;20043;-74
2021/03/05 04:49:18;;;;;;;5.28;3.10;;;-2.80;81.70;;;;;;5074693;28;20024;-74
2021/03/05 04:51:44;;;;;;;3.72;2.83;;;-2.80;81.60;;;;;;5074662;28;20107;-74
2021/03/05 04:54:10;;;;;;;4.47;3.50;;;-2.70;81.40;;;;;;5074442;28;20388;-74
2021/03/05 04:56:36;;;;;;;4.10;3.17;;;-2.70;81.40;;;;;;5074428;28;20063;-75
2021/03/05 04:59:03;;;;;;;5.78;4.70;;;-2.60;81.30;;;;;;5074258;28;20089;-77
2021/03/05 05:01:29;;;;;;;5.70;3.25;;;-2.50;81.20;;;;;;5073189;28;20025;-76
2021/03/05 05:03:55;;;;;;;7.60;3.92;;;-2.40;81.10;;;;;;5074323;28;20059;-74
2021/03/05 05:06:21;;;;;;;6.43;3.22;;;-2.40;81.10;;;;;;5056237;28;20060;-75
2021/03/05 05:08:47;;;;;;;4.70;3.30;;;-2.30;81.00;;;;;;5074233;28;20025;-75
2021/03/05 05:11:13;;;;;;;5.75;3.65;;;-2.20;80.50;;;;;;5074116;28;20023;-74
2021/03/05 05:13:39;;;;;;;6.63;3.40;;;-2.20;80.10;;;;;;5074199;28;20021;-74
2021/03/05 05:16:05;;;;;;;5.70;3.35;;;-2.20;80.10;;;;;;5073811;28;20024;-75
2021/03/05 05:18:31;;;;;;;6.20;3.30;;;-2.30;80.10;;;;;;5074083;28;20086;-75
2021/03/05 05:20:57;;;;;;;4.55;2.88;;;-2.30;80.10;;;;;;5073673;28;20508;-74
2021/03/05 05:23:22;;;;;;;5.13;2.90;;;-2.20;80.10;;;;;;5073634;28;20016;-75
2021/03/05 05:25:48;;;;;;;6.35;3.08;;;-2.20;79.90;;;;;;5073964;28;20031;-74
2021/03/05 05:28:14;;;;;;;5.15;3.50;;;-2.20;80.00;;;;;;5072045;28;20028;-74
2021/03/05 05:30:40;;;;;;;6.93;4.03;;;-2.20;80.00;;;;;;5069973;28;20025;-74
2021/03/05 05:33:06;;;;;;;6.05;3.72;;;-2.10;79.90;;;;;;5055285;28;20453;-73
2021/03/05 05:35:32;;;;;;;5.05;2.72;;;-2.00;79.60;;;;;;5070422;28;20039;-74
2021/03/05 05:37:58;;;;;;;9.20;3.47;;;-2.00;79.20;;;;;;5067496;28;20017;-75
2021/03/05 05:40:26;;;;;;;7.03;3.28;;;-2.10;79.10;;;;;;5065550;28;20024;-74
2021/03/05 05:42:52;;;;;;;;;;;-2.10;79.10;;;;;;5055831;28;20055;-75
2021/03/05 05:45:18;;;;;;;9.25;3.80;;;-2.10;79.10;;;;;;5066454;28;19969;-76
2021/03/05 05:47:45;;;;;;;5.05;3.35;;;-2.10;79.40;;;;;;5055276;28;20031;-74
2021/03/05 05:50:11;;;;;;;4.90;2.85;;;-2.00;79.00;;;;;;5066213;28;20373;-74
2021/03/05 05:52:37;;;;;;;3.63;2.55;;;-1.90;78.70;;;;;;5070672;28;20140;-74
2021/03/05 05:55:05;;;;;;;5.72;3.10;;;-1.80;78.20;;;;;;5072067;28;20024;-75
2021/03/05 05:57:34;;;;;;;7.55;4.20;;;-1.80;78.20;;;;;;5070835;28;20052;-74
2021/03/05 06:00:00;;;;;;;4.70;2.75;;;-1.70;78.20;;;;;;5069331;28;20043;-74
2021/03/05 06:02:29;;;;;;;4.13;3.03;;;-1.50;77.80;;;;;;5068051;28;20017;-75
2021/03/05 06:04:55;;;;;;;10.18;4.15;;;-1.50;77.60;;;;;;5073965;28;20025;-76
2021/03/05 06:07:25;;;;;;;5.15;2.35;;;-1.50;77.20;;;;;;5060813;28;20076;-75
2021/03/05 06:09:52;;;;;;;5.43;2.90;;;-1.40;77.20;;;;;;5068476;28;20013;-76
2021/03/05 06:12:19;;;;;;;4.28;2.55;;;-1.30;77.00;;;;;;5072991;28;20497;-77
2021/03/05 06:14:47;;;;;;;5.63;3.00;;;-1.30;76.20;;;;;;5054917;28;20116;-76
2021/03/05 06:17:13;;;;;;;7.93;3.53;;;-1.40;76.20;;;;;;5072870;28;20070;-77
2021/03/05 06:19:39;;;;;;;7.43;3.45;;;-1.30;76.40;;;;;;5072502;28;20056;-75
2021/03/05 06:22:24;;;;;;;5.53;3.10;;;-1.20;76.10;;;;;;5072716;28;20030;-76
2021/03/05 06:24:50;;;;;;;5.40;2.70;;;-1.00;75.80;;;;;;5072569;28;20017;-76
2021/03/05 06:27:17;;;;;;;9.50;3.35;;;-1.00;75.70;;;;;;5054483;28;20025;-76
2021/03/05 06:29:45;;;;;;;6.50;3.45;;;-0.90;75.50;;;;;;5054355;28;20036;-76
2021/03/05 06:32:13;;;;;;;10.05;2.95;;;-0.80;75.10;;;;;;5054295;28;20460;-77
2021/03/05 06:34:53;;;;;;;5.80;2.75;;;-0.70;74.50;;;;;;5072690;28;20032;-77
2021/03/05 06:37:23;;;;;;;4.25;2.47;;;-0.70;74.10;;;;;;5072596;28;20020;-76
2021/03/05 06:40:09;;;;;;;10.30;3.60;;;-0.80;73.50;;;;;;5072429;28;20469;-75
2021/03/05 06:43:07;;;;;;;4.60;3.03;;;-0.90;73.00;;;;;;5072987;28;20074;-77
2021/03/05 06:45:36;;;;;;;6.93;2.80;;;-1.10;73.20;;;;;;5028814;28;20032;-73
2021/03/05 06:48:07;;;;;;;5.85;3.22;;;-1.00;73.50;;;;;;5072746;28;20051;-76
2021/03/05 06:50:35;;;;;;;3.92;2.75;;;-1.00;73.00;;;;;;5072411;28;20017;-75
2021/03/05 06:53:22;;;;;;;7.95;3.72;;;-0.90;73.70;;;;;;5054660;28;20063;-75
2021/03/05 06:55:48;;;;;;;4.07;3.25;;;-0.60;73.20;;;;;;5072160;28;20065;-74
2021/03/05 06:58:14;;;;;;;4.15;2.75;;;-0.40;72.00;;;;;;5072112;28;20021;-75
2021/03/05 07:00:42;;;;;;;6.70;2.72;;;-0.30;71.40;;;;;;5053810;28;20042;-74
2021/03/05 07:03:21;;;;;;;5.90;3.53;;;-0.20;70.90;;;;;;5054210;28;20025;-75
2021/03/05 07:05:55;;;;;;;7.13;3.00;;;0.00;70.20;;;;;;5067400;28;20104;-75
2021/03/05 07:08:45;;;;;;;5.90;3.45;;;0.10;69.60;;;;;;5072391;28;20045;-74
2021/03/05 07:11:32;;;;;;;7.32;3.13;;;0.00;69.10;;;;;;5062074;28;20032;-77
2021/03/05 07:13:58;;;;;;;;;;;-0.20;69.10;;;;;;5072639;28;20478;-75
2021/03/05 07:16:24;;;;;;;5.43;3.00;;;-0.40;69.10;;;;;;5071545;28;19999;-78
2021/03/05 07:18:50;;;;;;;5.93;3.40;;;-0.40;69.60;;;;;;5068404;28;20082;-76
2021/03/05 07:21:18;;;;;;;5.10;2.85;;;-0.40;69.80;;;;;;5071306;28;20028;-77
2021/03/05 07:23:46;;;;;;;3.55;2.85;;;-0.20;69.50;;;;;;5069273;28;20012;-77
2021/03/05 07:26:14;;;;;;;7.72;3.20;;;-0.10;69.20;;;;;;5066705;28;20028;-76
2021/03/05 07:28:46;;;;;;;4.03;2.58;;;0.10;68.00;;;;;;5054411;28;20485;-77
2021/03/05 07:31:17;;;;;;;4.30;3.15;;;0.30;67.30;;;;;;5068471;28;20028;-77
2021/03/05 07:33:46;;;;;;;6.07;2.40;;;0.40;66.60;;;;;;5068538;28;20018;-77
2021/03/05 07:36:15;;;;;;;5.30;2.40;;;0.40;66.20;;;;;;5068225;28;20063;-78
2021/03/05 07:38:46;;;;;;;5.32;2.08;;;0.30;65.50;;;;;;5071415;28;20024;-77
2021/03/05 07:41:13;;;;;;;5.30;2.42;;;0.20;65.10;;;;;;5068978;28;20044;-79
2021/03/05 07:43:39;;;;;;;4.88;2.75;;;0.80;66.50;;;;;;5064330;28;20013;-78
2021/03/05 07:46:06;;;;;;;4.40;2.08;;;1.70;64.30;;;;;;5063730;28;20036;-78
2021/03/05 07:48:33;;;;;;;3.42;2.53;;;2.00;60.60;;;;;;5066094;28;20142;-77
2021/03/05 07:51:00;;;;;;;2.85;2.08;;;2.80;59.50;;;;;;5070587;28;20025;-77
2021/03/05 07:53:25;;;;;;;4.60;2.42;;;3.90;56.20;;;;;;5071870;28;20016;-77
2021/03/05 07:55:51;;;;;;;2.42;1.80;;;4.70;53.70;;;;;;5061399;28;20043;-77
2021/03/05 07:58:46;;;;;;;4.32;3.03;;;5.20;51.60;;;;;;5053613;28;20095;-77
2021/03/05 08:01:12;;;;;;;6.90;1.77;;;5.80;51.30;;;;;;5047556;28;20036;-76
2021/03/05 08:03:54;;;;;;;8.70;2.15;;;6.00;48.30;;;;;;5055094;28;20055;-76
2021/03/05 08:06:28;;;;;;;2.25;1.80;;;5.70;46.40;;;;;;5064705;28;20059;-78
2021/03/05 08:09:07;;;;;;;4.10;1.50;;;5.80;46.90;;;;;;5068199;28;20096;-78
2021/03/05 08:11:38;;;;;;;4.80;1.33;;;5.50;45.50;;;;;;5057926;28;20020;-77
2021/03/05 08:14:19;;;;;;;4.10;1.45;;;5.80;45.60;;;;;;5073549;28;20387;-76
2021/03/05 08:16:48;;;;;;;7.32;3.28;;;6.30;44.40;;;;;;5057500;28;20048;-77
2021/03/05 08:19:15;;;;;;;4.85;2.20;;;7.00;43.80;;;;;;5068221;28;20099;-76
2021/03/05 08:21:54;;;;;;;5.63;2.47;;;8.40;43.50;;;;;;5074848;28;20363;-76
2021/03/05 08:24:25;;;;;;;3.47;2.60;;;9.50;40.90;;;;;;5075160;28;20055;-79
2021/03/05 08:27:05;;;;;;;4.43;2.10;;;9.80;39.50;;;;;;5060866;28;20021;-78
2021/03/05 08:30:06;;;;;;;2.53;1.88;;;9.80;38.30;;;;;;5074897;28;20108;-78
2021/03/05 08:32:34;;;;;;;2.55;1.70;;;9.10;38.60;;;;;;5074695;28;20025;-76
2021/03/05 08:35:11;;;;;;;5.72;2.30;;;8.20;38.60;;;;;;5089226;28;20033;-78
2021/03/05 08:38:01;;;;;;;7.03;3.00;;;6.90;39.30;;;;;;5056825;28;20025;-79
2021/03/05 08:40:30;;;;;;;2.42;1.50;;;5.90;41.40;;;;;;5063805;28;20037;-79
2021/03/05 08:43:16;;;;;;;2.90;1.83;;;4.90;42.40;;;;;;5056758;28;20027;-77
2021/03/05 08:46:06;;;;;;;5.23;1.70;;;4.20;42.90;;;;;;5062569;28;20020;-77
2021/03/05 08:48:36;;;;;;;3.42;1.77;;;3.70;44.70;;;;;;5074610;28;20048;-78
2021/03/05 08:51:03;;;;;;;1.42;1.08;;;3.60;45.30;;;;;;5077152;28;20097;-79
2021/03/05 08:53:35;;;;;;;5.40;2.35;;;3.70;45.00;;;;;;5073630;28;20362;-77
2021/03/05 08:56:01;;;;;;;7.30;3.33;;;3.60;45.50;;;;;;5074658;28;20041;-78
2021/03/05 08:58:27;;;;;;;5.95;1.83;;;4.00;46.20;;;;;;5074549;28;20021;-76
2021/03/05 09:00:53;;;;;;;5.00;1.85;;;4.10;45.80;;;;;;5074578;28;20384;-78
2021/03/05 09:03:19;;;;;;;5.85;3.08;;;4.20;45.10;;;;;;5075177;28;20025;-77
2021/03/05 09:05:50;;;;;;;2.53;2.00;;;5.20;45.30;;;;;;5074421;28;20535;-78
2021/03/05 09:08:25;;;;;;;2.85;2.00;;;7.10;43.00;;;;;;5056381;28;20082;-78
2021/03/05 09:10:54;;;;;;;1.55;1.20;;;8.70;39.90;;;;;;5056226;28;20017;-77
2021/03/05 09:13:23;;;;;;;2.42;1.65;;;9.60;35.90;;;;;;5056925;28;20097;-77
2021/03/05 09:15:51;;;;;;;2.47;1.50;;;9.20;34.50;;;;;;5056968;28;20055;-79
2021/03/05 09:18:19;;;;;;;3.08;1.45;;;9.00;34.80;;;;;;5074150;28;20034;-78
2021/03/05 09:20:56;;;;;;;3.25;1.20;;;8.80;33.30;;;;;;5074576;28;20036;-77
2021/03/05 09:23:33;;;;;;;2.85;1.30;;;8.00;34.20;;;;;;5073522;28;20477;-78
2021/03/05 09:26:15;;;;;;;5.57;1.38;;;7.00;33.90;;;;;;5072775;28;20037;-79
2021/03/05 09:28:42;;;;;;;2.28;0.98;;;6.30;36.40;;;;;;5073760;28;20504;-77
2021/03/05 09:31:09;;;;;;;1.30;0.97;;;5.50;36.40;;;;;;5072122;28;20082;-78
2021/03/05 09:33:38;;;;;;;8.00;1.92;;;4.40;38.40;;;;;;5073652;28;20253;-77
2021/03/05 09:36:11;;;;;;;2.97;1.40;;;3.50;41.90;;;;;;5055827;28;20521;-78
2021/03/05 09:38:59;;;;;;;5.65;1.48;;;2.50;48.40;;;;;;5073777;28;20013;-78
2021/03/05 09:41:27;;;;;;;2.70;1.80;;;1.40;57.20;;;;;;5073986;28;20052;-78
2021/03/05 09:44:10;;;;;;;2.72;1.48;;;0.50;63.70;;;;;;5073521;28;20020;-79
2021/03/05 09:46:41;;;;;;;2.95;1.67;;;-0.10;67.50;;;;;;5073352;28;20078;-78
2021/03/05 09:49:26;;;;;;;1.50;1.10;;;-0.50;70.00;;;;;;5055505;28;20017;-76
2021/03/05 09:51:52;;;;;;;3.08;1.23;;;-0.70;70.70;;;;;;5072795;28;20029;-80
2021/03/05 09:54:32;;;;;;;2.97;1.50;;;-0.80;71.60;;;;;;5073188;28;20021;-77
2021/03/05 09:56:58;;;;;;;3.22;1.35;;;-0.90;71.90;;;;;;5073110;28;20036;-78
2021/03/05 09:59:24;;;;;;;2.45;1.65;;;-1.00;72.10;;;;;;5055107;28;20123;-77
2021/03/05 10:01:50;;;;;;;3.75;1.83;;;-1.00;72.80;;;;;;5072874;28;20074;-79
2021/03/05 10:04:15;;;;;;;3.53;1.90;;;-0.80;73.30;;;;;;5072847;28;20025;-79
2021/03/05 10:06:51;;;;;;;5.07;2.05;;;-0.50;73.60;;;;;;5055026;28;20055;-78
2021/03/05 10:09:21;;;;;;;5.90;1.85;;;-0.10;72.70;;;;;;5072741;28;20033;-77
2021/03/05 10:11:47;;;;;;;2.15;1.70;;;0.20;71.90;;;;;;5072759;28;20062;-77
2021/03/05 10:14:24;;;;;;;4.70;1.80;;;0.60;73.00;;;;;;5054603;28;20052;-76
2021/03/05 10:16:51;;;;;;;3.00;1.65;;;2.00;74.40;;;;;;5072705;28;20100;-78
2021/03/05 10:19:23;;;;;;;2.78;1.85;;;4.20;70.20;;;;;;5054873;28;20032;-78
2021/03/05 10:21:54;;;;;;;3.95;1.50;;;5.60;62.00;;;;;;5059328;28;20100;-77
2021/03/05 10:24:25;;;;;;;5.75;2.83;;;6.60;57.30;;;;;;5072740;28;20024;-79
2021/03/05 10:27:21;;;;;;;1.98;1.35;;;7.70;53.50;;;;;;5037530;28;20017;-78
2021/03/05 10:30:16;;;;;;;1.77;1.60;;;8.70;49.10;;;;;;5068550;28;20493;-80
2021/03/05 10:32:48;;;;;;;2.35;2.10;;;8.80;45.10;;;;;;5047705;28;20611;-77
2021/03/05 10:35:18;;;;;;;3.88;1.50;;;7.90;45.50;;;;;;5072243;28;20055;-78
2021/03/05 10:37:44;;;;;;;2.90;1.65;;;6.80;46.20;;;;;;5071953;28;20063;-79
2021/03/05 10:40:15;;;;;;;1.98;1.42;;;5.80;48.00;;;;;;5070796;28;20090;-76
2021/03/05 10:42:41;;;;;;;3.50;1.67;;;4.90;47.80;;;;;;5054340;28;20109;-78
2021/03/05 10:45:08;;;;;;;5.73;3.60;;;4.20;49.50;;;;;;5072009;28;20454;-78
2021/03/05 10:47:35;;;;;;;4.78;3.65;;;3.60;51.30;;;;;;5072096;28;20024;-77
2021/03/05 10:50:03;;;;;;;8.23;4.55;;;2.80;53.00;;;;;;5054189;28;20547;-78
2021/03/05 10:52:29;;;;;;;7.97;3.25;;;2.50;53.90;;;;;;5071913;28;20016;-78
2021/03/05 10:54:56;;;;;;;3.72;2.20;;;2.40;54.50;;;;;;5054093;28;20066;-79
2021/03/05 10:57:22;;;;;;;8.02;4.93;;;2.40;53.50;;;;;;5054063;28;20523;-79
2021/03/05 10:59:55;;;;;;;4.20;2.83;;;2.30;53.40;;;;;;5071965;28;20029;-77
2021/03/05 11:02:34;;;;;;;;;;;;;;;;;;;;;
2021/03/05 11:05:00;;;;;;;1.42;1.20;;;1.70;53.70;;;;;;5072060;28;20496;-76
2021/03/05 11:07:26;;;;;;;2.38;1.83;;;1.60;53.90;;;;;;5070657;28;20111;-77
2021/03/05 11:09:52;;;;;;;4.85;1.60;;;1.50;54.30;;;;;;5072153;28;20029;-77
2021/03/05 11:12:17;;;;;;;1.90;1.20;;;1.50;54.30;;;;;;5070661;28;20021;-78
2021/03/05 11:14:43;;;;;;;1.90;1.60;;;1.40;54.20;;;;;;5071929;28;20066;-77
2021/03/05 11:17:09;;;;;;;4.20;2.00;;;1.30;54.20;;;;;;5071853;28;20016;-77
2021/03/05 11:19:35;;;;;;;2.03;1.70;;;1.30;54.80;;;;;;5070601;28;20032;-78
2021/03/05 11:22:01;;;;;;;5.03;2.20;;;1.30;55.60;;;;;;5072244;28;20505;-76
2021/03/05 11:24:27;;;;;;;4.70;2.03;;;1.20;57.20;;;;;;5053853;28;20031;-77
2021/03/05 11:26:53;;;;;;;5.28;2.28;;;1.00;59.40;;;;;;5071971;28;20013;-77
2021/03/05 11:29:19;;;;;;;7.78;2.58;;;0.80;60.80;;;;;;5053969;28;20046;-77
2021/03/05 11:31:44;;;;;;;5.35;4.15;;;0.60;62.50;;;;;;5071707;28;20055;-76
2021/03/05 11:34:10;;;;;;;2.08;1.88;;;0.70;63.50;;;;;;5054356;28;20024;-78
2021/03/05 11:36:36;;;;;;;4.38;2.28;;;0.80;63.50;;;;;;5054417;28;20031;-78
2021/03/05 11:39:06;;;;;;;4.25;2.42;;;0.70;63.70;;;;;;5072357;28;20017;-77
2021/03/05 11:41:32;;;;;;;2.38;2.15;;;0.40;64.00;;;;;;5071430;28;20416;-78
2021/03/05 11:44:05;;;;;;;3.58;2.38;;;0.20;64.90;;;;;;5071895;28;20021;-79
2021/03/05 11:46:31;;;;;;;6.32;3.45;;;0.00;64.40;;;;;;5071670;28;20373;-78
2021/03/05 11:48:57;;;;;;;5.43;2.28;;;-0.10;64.80;;;;;;5055773;28;20027;-77
2021/03/05 11:51:23;;;;;;;2.65;2.05;;;-0.10;65.10;;;;;;5075760;28;20025;-78
2021/03/05 11:53:52;;;;;;;5.30;2.60;;;0.00;65.30;;;;;;5057541;28;20027;-78
2021/03/05 11:56:18;;;;;;;6.15;2.45;;;0.00;65.10;;;;;;5075467;28;20346;-78
2021/03/05 11:58:43;;;;;;;3.25;2.40;;;-0.10;65.10;;;;;;5075178;28;20028;-77
2021/03/05 12:01:13;;;;;;;3.13;2.35;;;-0.10;65.30;;;;;;5073839;28;20037;-77
2021/03/05 12:03:40;;;;;;;4.22;2.25;;;0.00;65.40;;;;;;5074997;28;20024;-79
2021/03/05 12:06:07;;;;;;;1.92;1.60;;;0.00;64.40;;;;;;5075181;28;20020;-78
2021/03/05 12:08:33;;;;;;;5.65;2.33;;;-0.10;61.80;;;;;;5075441;28;20065;-78
2021/03/05 12:10:59;;;;;;;3.15;2.00;;;-0.30;61.90;;;;;;5075141;28;20103;-77
2021/03/05 12:13:30;;;;;;;3.13;2.40;;;-0.40;62.50;;;;;;5075497;28;20024;-80
2021/03/05 12:15:56;;;;;;;4.88;2.13;;;-0.30;63.00;;;;;;5057139;28;20046;-78
2021/03/05 12:18:25;;;;;;;5.38;2.25;;;-0.30;62.80;;;;;;5056807;28;20016;-78
2021/03/05 12:20:51;;;;;;;3.53;2.53;;;-0.30;62.10;;;;;;5057328;28;20043;-78
2021/03/05 12:23:17;;;;;;;2.42;2.08;;;-0.40;62.20;;;;;;5056965;28;20020;-77
2021/03/05 12:25:43;;;;;;;4.10;2.08;;;-0.40;62.90;;;;;;5056684;28;20035;-77
2021/03/05 12:28:08;;;;;;;5.57;2.42;;;-0.40;62.90;;;;;;5073294;28;20081;-78
2021/03/05 12:30:45;;;;;;;3.95;1.80;;;-0.40;62.40;;;;;;5074762;28;20025;-77
2021/03/05 12:33:11;;;;;;;4.63;2.70;;;-0.40;61.70;;;;;;5074529;28;20385;-76
2021/03/05 12:35:36;;;;;;;5.68;2.92;;;-0.40;60.80;;;;;;5074075;28;20032;-79
2021/03/05 12:38:03;;;;;;;8.43;2.95;;;-0.50;61.60;;;;;;5075273;28;20038;-77
2021/03/05 12:40:29;;;;;;;3.03;1.85;;;-0.40;60.90;;;;;;5075335;28;20119;-80
2021/03/05 12:42:56;;;;;;;3.88;2.10;;;-0.40;58.70;;;;;;5075449;28;20034;-79
2021/03/05 12:45:22;;;;;;;4.68;2.28;;;-0.40;58.60;;;;;;5056600;28;20036;-78
2021/03/05 12:47:48;;;;;;;3.40;2.58;;;-0.40;57.20;;;;;;5056593;28;20066;-78
2021/03/05 12:50:14;;;;;;;2.28;1.70;;;-0.30;58.00;;;;;;5074208;28;20373;-79
2021/03/05 12:52:40;;;;;;;4.35;2.35;;;-0.30;57.50;;;;;;5074446;28;20020;-77
2021/03/05 12:55:06;;;;;;;7.25;3.25;;;-0.30;57.40;;;;;;5074256;28;20036;-78
2021/03/05 12:57:32;;;;;;;4.35;2.63;;;-0.20;58.90;;;;;;5073320;28;20049;-77
2021/03/05 13:00:01;;;;;;;6.45;2.25;;;-0.10;58.90;;;;;;5073952;28;20047;-78
2021/03/05 13:02:30;;;;;;;6.20;2.53;;;0.00;58.80;;;;;;5056068;28;20104;-78
2021/03/05 13:04:55;;;;;;;2.40;1.83;;;0.10;57.00;;;;;;5074430;28;20104;-76